Time;durP1;ratioP1;P1;durP2;ratioP2;P2;SDS_P1;SDS_P2;PMS_P1;PMS_P2;Temp;Humidity;BMP_temperature;BMP_pressure;BME280_temperature;BME280_humidity;BME280_pressure;Samples;Min_cycle;Max_cycle;Signal;HPM_P1;HPM_P2
2023/07/16 00:00:22;;;;;;;2.42;1.20;;;;;;;24.87;59.09;99749.25;4416742;32;33850;-85
2023/07/16 00:02:52;;;;;;;1.80;1.52;;;;;;;24.54;60.18;99751.75;4403818;32;32847;-85
2023/07/16 00:05:20;;;;;;;1.15;1.05;;;;;;;24.46;60.55;99752.53;4414248;32;33775;-85
2023/07/16 00:07:48;;;;;;;3.37;1.35;;;;;;;24.49;60.49;99749.50;4429321;32;34009;-85
2023/07/16 00:10:16;;;;;;;1.30;1.23;;;;;;;24.40;60.84;99750.50;4416281;32;34286;-85
2023/07/16 00:12:44;;;;;;;2.35;1.87;;;;;;;24.39;60.89;99746.06;4417406;32;32725;-85
2023/07/16 00:15:11;;;;;;;2.08;1.92;;;;;;;24.41;60.73;99746.78;4416915;32;34003;-85
2023/07/16 00:17:39;;;;;;;0.75;0.75;;;;;;;24.32;61.12;99747.69;4430139;32;33497;-85
2023/07/16 00:20:07;;;;;;;1.67;1.58;;;;;;;24.22;61.33;99742.37;4427070;32;34901;-85
2023/07/16 00:22:38;;;;;;;1.58;1.20;;;;;;;24.44;60.61;99743.75;4411706;32;33013;-85
2023/07/16 00:25:07;;;;;;;1.37;1.27;;;;;;;24.40;60.73;99744.22;4426111;32;33542;-85
2023/07/16 00:27:34;;;;;;;0.98;0.98;;;;;;;24.41;60.58;99743.22;4416579;32;33648;-85
2023/07/16 00:30:03;;;;;;;1.35;1.25;;;;;;;24.42;60.42;99743.06;4432011;32;33797;-85
2023/07/16 00:32:31;;;;;;;1.75;1.33;;;;;;;24.34;60.72;99747.50;4402312;32;33067;-85
2023/07/16 00:34:59;;;;;;;1.92;1.80;;;;;;;24.22;61.13;99741.53;4424849;32;33821;-85
2023/07/16 00:37:26;;;;;;;1.42;1.30;;;;;;;24.19;61.04;99741.84;4429940;32;34080;-85
2023/07/16 00:39:54;;;;;;;1.55;1.45;;;;;;;24.31;60.69;99735.19;4417227;32;32370;-85
2023/07/16 00:42:22;;;;;;;0.65;0.65;;;;;;;24.32;60.53;99736.88;4403766;32;32149;-85
2023/07/16 00:44:51;;;;;;;2.50;2.30;;;;;;;24.07;61.42;99738.53;4405513;32;33415;-85
2023/07/16 00:47:19;;;;;;;1.33;1.23;;;;;;;24.11;61.31;99739.91;4416317;32;33699;-85
2023/07/16 00:49:47;;;;;;;1.23;1.12;;;;;;;24.17;61.06;99743.84;4428566;32;34725;-85
2023/07/16 00:52:18;;;;;;;0.93;0.93;;;;;;;24.27;60.60;99745.44;4399457;32;32654;-85
2023/07/16 00:54:46;;;;;;;4.15;1.35;;;;;;;24.11;61.21;99734.50;4416199;32;33813;-84
2023/07/16 00:57:13;;;;;;;1.10;1.05;;;;;;;24.03;61.35;99729.06;4399886;32;31818;-85
2023/07/16 00:59:41;;;;;;;1.33;1.25;;;;;;;24.11;61.23;99722.88;4401815;32;32651;-85
2023/07/16 01:02:09;;;;;;;1.50;1.40;;;;;;;24.05;61.41;99721.66;4428567;32;32707;-84
2023/07/16 01:04:36;;;;;;;1.55;1.27;;;;;;;24.07;61.23;99729.56;4415873;32;33178;-85
2023/07/16 01:07:07;;;;;;;6.50;1.65;;;;;;;24.04;61.31;99727.22;4416400;32;34153;-85
2023/07/16 01:09:37;;;;;;;1.73;1.62;;;;;;;23.93;61.77;99715.66;4418100;32;33795;-85
2023/07/16 01:12:05;;;;;;;1.45;1.35;;;;;;;24.05;60.93;99721.66;4415767;32;33664;-85
2023/07/16 01:14:33;;;;;;;0.68;0.68;;;;;;;23.98;61.20;99723.28;4414017;32;33228;-85
2023/07/16 01:17:04;;;;;;;1.30;1.20;;;;;;;23.90;61.53;99717.81;4399182;32;32302;-85
2023/07/16 01:19:33;;;;;;;3.35;2.00;;;;;;;23.82;61.89;99715.03;4403393;32;32805;-85
2023/07/16 01:22:26;;;;;;;1.50;1.40;;;;;;;23.84;61.63;99715.75;4402504;32;32494;-85
2023/07/16 01:25:19;;;;;;;1.62;1.52;;;;;;;23.76;62.04;99716.50;4416615;32;32387;-85
2023/07/16 01:28:37;;;;;;;3.12;1.40;;;;;;;23.73;62.11;99714.94;4415846;32;33732;-85
2023/07/16 01:31:05;;;;;;;0.73;0.73;;;;;;;23.71;61.91;99725.03;4395272;32;33292;-85
2023/07/16 01:33:33;;;;;;;0.80;0.80;;;;;;;24.24;60.07;99724.16;4416231;32;33302;-85
2023/07/16 01:36:02;;;;;;;1.20;1.17;;;;;;;23.59;62.20;99723.53;4424982;32;33528;-85
2023/07/16 01:38:29;;;;;;;1.17;1.17;;;;;;;23.49;62.84;99717.34;4401727;32;32486;-84
2023/07/16 01:40:57;;;;;;;1.12;1.12;;;;;;;23.78;61.39;99711.78;4418543;32;32659;-85
2023/07/16 01:43:24;;;;;;;1.45;1.35;;;;;;;23.53;62.35;99716.06;4415306;32;34083;-85
2023/07/16 01:45:52;;;;;;;1.37;1.27;;;;;;;23.44;62.69;99725.88;4418315;32;34236;-85
2023/07/16 01:48:35;;;;;;;0.75;0.75;;;;;;;23.47;62.57;99716.66;4415364;32;33614;-85
2023/07/16 01:51:03;;;;;;;2.22;2.03;;;;;;;23.64;61.61;99715.88;4416259;32;33837;-85
2023/07/16 01:53:31;;;;;;;1.75;1.65;;;;;;;23.41;62.58;99719.97;4414903;32;33372;-85
2023/07/16 01:56:02;;;;;;;1.90;1.58;;;;;;;23.38;62.76;99717.56;4410336;32;33852;-85
2023/07/16 01:58:29;;;;;;;1.98;1.85;;;;;;;23.52;62.20;99725.16;4414120;32;33963;-85
2023/07/16 02:00:57;;;;;;;1.40;1.30;;;;;;;23.43;62.53;99712.56;4408289;32;32932;-85
2023/07/16 02:03:25;;;;;;;0.90;0.90;;;;;;;23.40;62.56;99707.47;4408960;32;33586;-85
2023/07/16 02:05:53;;;;;;;1.37;1.27;;;;;;;23.25;63.27;99710.69;4421562;32;33462;-84
2023/07/16 02:08:20;;;;;;;1.05;0.98;;;;;;;23.15;63.42;99715.28;4409818;32;34424;-85
2023/07/16 02:10:49;;;;;;;2.10;1.58;;;;;;;23.21;63.39;99713.81;4392562;32;33133;-84
2023/07/16 02:13:16;;;;;;;1.25;1.15;;;;;;;23.21;63.40;99703.91;4411300;32;33732;-85
2023/07/16 02:15:44;;;;;;;2.53;1.42;;;;;;;23.23;63.38;99706.47;4398201;32;33540;-85
2023/07/16 02:18:12;;;;;;;1.30;1.20;;;;;;;23.33;62.97;99701.03;4409885;32;33572;-85
2023/07/16 02:20:41;;;;;;;1.17;1.08;;;;;;;23.36;62.66;99703.37;4404368;32;34448;-85
2023/07/16 02:23:09;;;;;;;1.08;1.05;;;;;;;23.11;63.61;99707.66;4421719;32;32198;-85
2023/07/16 02:25:37;;;;;;;1.90;1.10;;;;;;;23.29;62.71;99699.62;4423030;32;33881;-85
2023/07/16 02:28:04;;;;;;;2.60;1.42;;;;;;;23.12;63.43;99693.19;4423276;32;34728;-85
2023/07/16 02:30:32;;;;;;;2.30;1.75;;;;;;;23.19;63.31;99694.28;4416217;32;32359;-84
2023/07/16 02:32:59;;;;;;;1.10;1.00;;;;;;;23.13;63.55;99692.22;4410114;32;32853;-84
2023/07/16 02:35:27;;;;;;;1.02;1.02;;;;;;;23.38;62.54;99698.72;4405337;32;33812;-85
2023/07/16 02:37:55;;;;;;;1.83;1.25;;;;;;;23.20;62.98;99694.13;4414316;32;33027;-85
2023/07/16 02:40:23;;;;;;;2.25;2.03;;;;;;;23.19;62.95;99700.53;4429964;32;34085;-84
2023/07/16 02:42:50;;;;;;;1.58;1.48;;;;;;;23.54;61.76;99698.03;4409986;32;34322;-85
2023/07/16 02:45:18;;;;;;;1.20;0.93;;;;;;;23.23;62.79;99699.22;4416052;32;33909;-85
2023/07/16 02:47:46;;;;;;;2.10;1.77;;;;;;;23.19;62.89;99705.06;4422562;32;34066;-85
2023/07/16 02:50:16;;;;;;;1.40;1.20;;;;;;;23.22;62.82;99712.84;4423681;32;34127;-85
2023/07/16 02:52:43;;;;;;;3.40;2.10;;;;;;;23.08;63.29;99703.44;4397062;32;32057;-84
2023/07/16 02:55:11;;;;;;;1.45;1.35;;;;;;;23.03;63.61;99700.34;4419152;32;33773;-85
2023/07/16 02:57:38;;;;;;;3.10;1.77;;;;;;;23.22;62.58;99699.38;4422980;32;32423;-84
2023/07/16 03:00:08;;;;;;;2.20;1.75;;;;;;;23.14;63.08;99704.66;4421791;32;34085;-85
2023/07/16 03:02:35;;;;;;;1.08;0.98;;;;;;;23.14;63.15;99701.97;4423090;32;34346;-85
2023/07/16 03:05:03;;;;;;;0.77;0.77;;;;;;;22.99;63.57;99707.84;4409632;32;33520;-85
2023/07/16 03:07:31;;;;;;;2.45;2.08;;;;;;;22.94;63.78;99707.44;4405360;32;33192;-84
2023/07/16 03:09:59;;;;;;;1.35;1.15;;;;;;;23.01;63.56;99718.47;4413786;32;34267;-85
2023/07/16 03:12:27;;;;;;;0.95;0.95;;;;;;;23.06;63.44;99709.94;4417796;32;32620;-85
2023/07/16 03:14:55;;;;;;;0.95;0.95;;;;;;;23.08;63.42;99714.19;4422699;32;33915;-85
2023/07/16 03:17:22;;;;;;;1.37;1.27;;;;;;;23.15;62.91;99715.28;4422711;32;34767;-85
2023/07/16 03:19:50;;;;;;;0.82;0.82;;;;;;;23.19;62.71;99719.37;4403771;32;33502;-85
2023/07/16 03:22:18;;;;;;;2.47;1.27;;;;;;;23.05;63.46;99719.03;4427412;32;34336;-85
2023/07/16 03:24:46;;;;;;;1.15;0.98;;;;;;;23.09;63.30;99718.59;4406794;32;34261;-85
2023/07/16 03:27:14;;;;;;;0.82;0.82;;;;;;;23.04;63.67;99720.88;4429853;32;33959;-85
2023/07/16 03:29:46;;;;;;;0.80;0.80;;;;;;;23.15;63.52;99722.50;4423510;32;34112;-85
2023/07/16 03:32:14;;;;;;;0.98;0.98;;;;;;;23.08;63.81;99730.34;4396691;32;33162;-85
2023/07/16 03:34:41;;;;;;;1.27;1.27;;;;;;;23.16;63.48;99721.50;4405635;32;33515;-85
2023/07/16 03:37:09;;;;;;;3.00;1.77;;;;;;;23.24;63.53;99725.16;4410052;32;33876;-84
2023/07/16 03:39:36;;;;;;;1.85;1.40;;;;;;;23.16;63.68;99722.34;4422615;32;34842;-84
2023/07/16 03:42:05;;;;;;;1.33;1.23;;;;;;;23.14;64.17;99724.38;4422890;32;33532;-85
2023/07/16 03:44:33;;;;;;;4.78;1.15;;;;;;;23.25;63.75;99726.84;4422935;32;33842;-85
2023/07/16 03:47:01;;;;;;;3.87;1.85;;;;;;;23.19;64.59;99722.06;4410192;32;33922;-85
2023/07/16 03:49:29;;;;;;;1.55;1.02;;;;;;;23.23;64.46;99728.84;4396643;32;32814;-85
2023/07/16 03:51:57;;;;;;;1.73;1.62;;;;;;;23.35;64.17;99729.47;4422297;32;34035;-85
2023/07/16 03:54:24;;;;;;;0.98;0.95;;;;;;;23.49;63.90;99728.13;4409243;32;34345;-84
2023/07/16 03:56:52;;;;;;;1.27;1.12;;;;;;;23.81;62.88;99727.66;4417760;32;33561;-84
2023/07/16 03:59:19;;;;;;;1.45;1.12;;;;;;;23.97;62.22;99732.34;4416585;32;34836;-85
2023/07/16 04:01:47;;;;;;;1.87;1.65;;;;;;;23.93;62.72;99734.53;4403911;32;32355;-84
2023/07/16 04:04:15;;;;;;;1.77;1.55;;;;;;;23.95;62.89;99731.69;4415874;32;33458;-85
2023/07/16 04:06:43;;;;;;;3.22;1.33;;;;;;;23.89;63.33;99740.38;4416906;32;33326;-85
2023/07/16 04:09:10;;;;;;;2.05;1.75;;;;;;;24.01;63.12;99744.53;4420295;32;34092;-85
2023/07/16 04:11:38;;;;;;;1.25;1.15;;;;;;;24.00;63.13;99742.84;4417274;32;31675;-85
2023/07/16 04:14:05;;;;;;;0.73;0.70;;;;;;;24.45;61.96;99747.28;4430320;32;33676;-85
2023/07/16 04:16:33;;;;;;;2.60;1.75;;;;;;;24.31;62.68;99745.12;4411872;32;33570;-84
2023/07/16 04:19:01;;;;;;;2.03;0.93;;;;;;;24.42;62.56;99742.22;4403370;32;32931;-84
2023/07/16 04:21:29;;;;;;;3.03;1.80;;;;;;;24.57;61.76;99750.59;4415411;32;33196;-85
2023/07/16 04:23:56;;;;;;;7.55;1.60;;;;;;;24.63;60.86;99734.59;4400161;32;33235;-85
2023/07/16 04:26:24;;;;;;;1.27;1.17;;;;;;;24.98;59.47;99730.94;4405065;32;33066;-85
2023/07/16 04:28:51;;;;;;;3.30;1.60;;;;;;;25.10;58.69;99741.47;4415184;32;33454;-85
2023/07/16 04:31:19;;;;;;;2.12;1.92;;;;;;;25.07;58.67;99747.16;4427547;32;34256;-85
2023/07/16 04:33:47;;;;;;;2.00;1.90;;;;;;;25.35;57.93;99747.81;4416214;32;32272;-85
2023/07/16 04:36:15;;;;;;;0.88;0.88;;;;;;;25.28;58.59;99751.19;4416507;32;33879;-85
2023/07/16 04:38:43;;;;;;;2.12;1.92;;;;;;;25.74;56.73;99751.69;4415772;32;33828;-84
2023/07/16 04:41:12;;;;;;;1.48;1.25;;;;;;;25.68;56.95;99757.72;4416526;32;32065;-85
2023/07/16 04:43:40;;;;;;;1.35;0.88;;;;;;;25.78;56.68;99752.22;4416074;32;33252;-85
2023/07/16 04:46:07;;;;;;;1.45;1.35;;;;;;;26.08;55.65;99758.88;4416800;32;32629;-85
2023/07/16 04:48:35;;;;;;;2.35;1.45;;;;;;;26.36;55.17;99756.69;4402986;32;33747;-85
2023/07/16 04:51:03;;;;;;;2.10;1.73;;;;;;;26.21;55.04;99759.22;4415688;32;34251;-85
2023/07/16 04:53:30;;;;;;;2.50;1.30;;;;;;;26.23;55.01;99759.88;4398236;32;33209;-85
2023/07/16 04:55:58;;;;;;;1.05;0.82;;;;;;;26.65;54.04;99756.16;4419182;32;33816;-85
2023/07/16 04:58:25;;;;;;;1.95;1.27;;;;;;;26.53;54.43;99754.81;4416589;32;33763;-85
2023/07/16 05:00:53;;;;;;;1.37;1.08;;;;;;;26.71;54.39;99766.31;4431402;32;33205;-85
2023/07/16 05:03:21;;;;;;;2.40;1.55;;;;;;;26.97;52.85;99757.13;4405060;32;33364;-85
2023/07/16 05:05:48;;;;;;;0.88;0.88;;;;;;;27.09;52.22;99752.19;4416054;32;33038;-85
2023/07/16 05:08:17;;;;;;;1.23;0.85;;;;;;;26.83;53.49;99757.84;4400287;32;33304;-85
2023/07/16 05:10:44;;;;;;;1.30;1.20;;;;;;;26.71;53.73;99755.47;4431169;32;33787;-85
2023/07/16 05:13:12;;;;;;;1.73;1.50;;;;;;;26.85;53.19;99758.50;4414390;32;33905;-85
2023/07/16 05:15:40;;;;;;;1.52;1.25;;;;;;;26.88;52.93;99761.72;4414030;32;34009;-84
2023/07/16 05:18:08;;;;;;;1.98;1.87;;;;;;;26.84;53.51;99760.38;4429456;32;33747;-85
2023/07/16 05:20:35;;;;;;;1.00;1.00;;;;;;;26.90;53.16;99761.53;4427126;32;34281;-85
2023/07/16 05:23:03;;;;;;;1.33;1.23;;;;;;;26.66;53.85;99763.28;4413497;32;33054;-85
2023/07/16 05:25:30;;;;;;;3.35;1.52;;;;;;;27.29;51.77;99759.72;4428914;32;34000;-85
2023/07/16 05:27:59;;;;;;;2.47;1.25;;;;;;;27.08;52.98;99751.34;4428961;32;34611;-85
2023/07/16 05:30:26;;;;;;;0.62;0.62;;;;;;;27.27;52.74;99755.53;4421157;32;32929;-85
2023/07/16 05:32:54;;;;;;;1.08;1.08;;;;;;;27.37;52.16;99755.31;4429586;32;33459;-85
2023/07/16 05:35:22;;;;;;;1.05;1.02;;;;;;;27.60;51.60;99745.38;4401197;32;32528;-85
2023/07/16 05:37:49;;;;;;;19.42;1.60;;;;;;;27.71;51.13;99741.41;4413101;32;34310;-85
2023/07/16 05:40:17;;;;;;;1.80;1.15;;;;;;;27.72;50.57;99749.37;4416485;32;33266;-85
2023/07/16 05:42:44;;;;;;;3.90;1.05;;;;;;;27.93;50.83;99747.91;4413348;32;34633;-85
2023/07/16 05:45:12;;;;;;;0.75;0.75;;;;;;;27.91;49.91;99758.09;4402977;32;33938;-85
2023/07/16 05:47:40;;;;;;;0.70;0.70;;;;;;;27.97;50.26;99763.66;4428438;32;33841;-85
2023/07/16 05:50:08;;;;;;;1.37;1.23;;;;;;;27.81;50.01;99755.59;4428238;32;33548;-85
2023/07/16 05:52:35;;;;;;;1.25;1.20;;;;;;;28.08;49.72;99762.38;4415591;32;33844;-85
2023/07/16 05:55:03;;;;;;;1.52;1.42;;;;;;;27.99;49.91;99760.75;4415141;32;34667;-85
2023/07/16 05:57:31;;;;;;;1.12;0.90;;;;;;;28.19;48.99;99755.69;4408602;32;32899;-85
2023/07/16 05:59:58;;;;;;;1.10;0.70;;;;;;;28.44;49.21;99759.06;4427519;32;33644;-85
2023/07/16 06:02:26;;;;;;;1.33;1.23;;;;;;;28.39;49.70;99765.06;4428363;32;33836;-85
2023/07/16 06:04:54;;;;;;;1.80;1.70;;;;;;;28.28;48.67;99757.31;4404454;32;33406;-85
2023/07/16 06:07:21;;;;;;;1.08;1.08;;;;;;;28.40;47.20;99763.19;4428559;32;34109;-85
2023/07/16 06:09:49;;;;;;;0.75;0.75;;;;;;;28.74;47.85;99763.53;4414657;32;32171;-85
2023/07/16 06:12:16;;;;;;;0.65;0.65;;;;;;;28.89;46.76;99754.56;4415200;32;33908;-85
2023/07/16 06:14:44;;;;;;;0.40;0.40;;;;;;;28.74;46.66;99762.69;4412132;32;35423;-85
2023/07/16 06:17:11;;;;;;;1.52;1.42;;;;;;;29.13;46.57;99759.75;4397949;32;33107;-85
2023/07/16 06:19:39;;;;;;;1.42;1.10;;;;;;;29.47;46.06;99758.31;4404087;32;32147;-86
2023/07/16 06:22:08;;;;;;;1.37;1.27;;;;;;;29.36;45.83;99758.81;4428503;32;33671;-85
2023/07/16 06:24:36;;;;;;;2.05;1.62;;;;;;;29.20;46.00;99760.69;4424595;32;34330;-85
2023/07/16 06:27:04;;;;;;;5.15;1.35;;;;;;;29.37;46.06;99753.16;4414792;32;33723;-85
2023/07/16 06:29:31;;;;;;;1.37;1.27;;;;;;;29.72;44.37;99753.41;4398436;32;31749;-85
2023/07/16 06:31:59;;;;;;;0.73;0.73;;;;;;;29.37;45.75;99765.91;4389973;32;32431;-86
2023/07/16 06:34:27;;;;;;;1.23;1.08;;;;;;;29.04;46.04;99750.00;4430093;32;33777;-85
2023/07/16 06:36:54;;;;;;;4.32;2.03;;;;;;;29.39;45.90;99758.41;4430144;32;33785;-85
2023/07/16 06:39:22;;;;;;;1.02;0.90;;;;;;;29.58;45.48;99757.87;4416470;32;32164;-85
2023/07/16 06:41:50;;;;;;;0.85;0.85;;;;;;;29.85;44.04;99748.09;4414652;32;32297;-85
2023/07/16 06:44:17;;;;;;;0.93;0.77;;;;;;;29.88;44.45;99755.91;4428341;32;33592;-85
2023/07/16 06:46:45;;;;;;;1.00;1.00;;;;;;;29.69;45.17;99754.63;4401870;32;33895;-86
2023/07/16 06:49:12;;;;;;;1.35;1.25;;;;;;;30.33;43.70;99745.66;4426605;32;33636;-86
2023/07/16 06:51:40;;;;;;;1.23;1.23;;;;;;;30.22;43.99;99754.38;4426099;32;33113;-86
2023/07/16 06:54:08;;;;;;;0.52;0.52;;;;;;;30.35;43.75;99755.34;4414592;32;33026;-86
2023/07/16 06:56:35;;;;;;;1.58;1.48;;;;;;;30.17;44.68;99754.97;4415478;32;33444;-85
2023/07/16 06:59:03;;;;;;;1.58;1.48;;;;;;;30.34;43.57;99753.66;4405262;32;32060;-86
2023/07/16 07:01:30;;;;;;;1.20;1.10;;;;;;;30.23;43.33;99756.91;4428993;32;34104;-86
2023/07/16 07:03:58;;;;;;;3.65;1.60;;;;;;;30.07;43.75;99759.88;4420032;32;34853;-86
2023/07/16 07:06:26;;;;;;;0.65;0.65;;;;;;;30.14;43.35;99752.62;4416950;32;32987;-85
2023/07/16 07:08:54;;;;;;;5.57;2.50;;;;;;;30.50;43.50;99757.13;4405936;32;32250;-85
2023/07/16 07:11:22;;;;;;;8.02;2.08;;;;;;;30.56;42.41;99748.16;4430730;32;33257;-86
2023/07/16 07:13:50;;;;;;;1.10;1.05;;;;;;;30.61;42.94;99753.88;4429526;32;34736;-86
2023/07/16 07:16:18;;;;;;;2.25;1.87;;;;;;;30.49;43.21;99750.84;4404778;32;33102;-86
2023/07/16 07:18:46;;;;;;;1.58;1.33;;;;;;;30.93;40.82;99740.72;4414620;32;33533;-85
2023/07/16 07:21:14;;;;;;;1.25;1.17;;;;;;;31.25;41.81;99750.97;4416606;32;34492;-86
2023/07/16 07:23:41;;;;;;;3.05;1.85;;;;;;;31.65;39.97;99756.59;4417163;32;33638;-86
2023/07/16 07:26:09;;;;;;;0.90;0.90;;;;;;;31.42;40.33;99756.09;4418610;32;33036;-86
2023/07/16 07:28:37;;;;;;;1.45;0.73;;;;;;;31.09;41.15;99751.28;4404811;32;32611;-86
2023/07/16 07:31:04;;;;;;;0.57;0.57;;;;;;;31.42;40.22;99747.91;4403803;32;32556;-86
2023/07/16 07:33:32;;;;;;;1.35;1.20;;;;;;;31.71;41.09;99761.22;4403983;32;32426;-86
2023/07/16 07:36:00;;;;;;;1.37;1.10;;;;;;;32.01;40.13;99752.75;4427237;32;34577;-86
2023/07/16 07:38:28;;;;;;;4.95;1.17;;;;;;;31.93;38.35;99742.84;4430446;32;33652;-86
2023/07/16 07:40:56;;;;;;;0.30;0.30;;;;;;;31.60;38.49;99749.03;4403049;32;32342;-86
2023/07/16 07:43:23;;;;;;;0.62;0.60;;;;;;;31.66;38.74;99746.53;4412957;32;34443;-86
2023/07/16 07:45:51;;;;;;;0.77;0.77;;;;;;;32.24;38.69;99739.56;4417755;32;33369;-86
2023/07/16 07:48:19;;;;;;;1.12;1.02;;;;;;;32.22;38.58;99736.16;4403996;32;34028;-86
2023/07/16 07:50:46;;;;;;;0.45;0.45;;;;;;;32.50;37.01;99733.25;4416010;32;32633;-86
2023/07/16 07:53:20;;;;;;;0.90;0.63;;;;;;;32.68;37.56;99740.00;4417757;32;32921;-86
2023/07/16 07:55:47;;;;;;;1.62;0.35;;;;;;;32.66;36.23;99740.19;4427245;32;34878;-86
2023/07/16 07:58:15;;;;;;;1.87;0.70;;;;;;;32.59;37.23;99736.63;4416858;32;32881;-86
2023/07/16 08:00:43;;;;;;;0.85;0.85;;;;;;;32.73;36.20;99735.56;4407966;32;33070;-86
2023/07/16 08:03:10;;;;;;;1.85;1.33;;;;;;;32.98;36.58;99734.91;4419005;32;33012;-87
2023/07/16 08:05:38;;;;;;;4.15;1.27;;;;;;;33.01;36.06;99734.50;4430650;32;34802;-86
2023/07/16 08:08:06;;;;;;;3.05;0.88;;;;;;;33.46;36.53;99727.19;4419325;32;32911;-86
2023/07/16 08:10:33;;;;;;;1.33;1.02;;;;;;;33.82;34.99;99728.47;4424771;32;33906;-86
2023/07/16 08:13:01;;;;;;;31.05;1.02;;;;;;;33.02;36.57;99737.00;4429288;32;34869;-86
2023/07/16 08:15:29;;;;;;;1.15;0.60;;;;;;;33.17;36.38;99734.00;4416094;32;34942;-86
2023/07/16 08:17:59;;;;;;;0.45;0.45;;;;;;;33.50;36.52;99728.44;4406278;32;33148;-86
2023/07/16 08:20:27;;;;;;;0.93;0.75;;;;;;;33.71;35.65;99723.69;4413751;32;33948;-86
2023/07/16 08:22:55;;;;;;;1.58;1.10;;;;;;;33.42;36.38;99736.00;4430496;32;34177;-86
2023/07/16 08:25:23;;;;;;;0.77;0.77;;;;;;;33.74;35.41;99729.56;4418102;32;34886;-85
2023/07/16 08:27:50;;;;;;;0.52;0.52;;;;;;;34.00;35.37;99720.38;4412798;32;33680;-87
2023/07/16 08:30:18;;;;;;;2.22;1.67;;;;;;;33.68;35.56;99724.97;4398628;32;33239;-87
2023/07/16 08:32:46;;;;;;;1.25;0.80;;;;;;;33.45;35.59;99735.63;4416000;32;33606;-87
2023/07/16 08:35:16;;;;;;;0.50;0.50;;;;;;;33.46;36.45;99721.72;4405285;32;31941;-86
2023/07/16 08:37:44;;;;;;;3.20;1.55;;;;;;;33.62;36.52;99729.44;4402821;32;32047;-86
2023/07/16 08:40:12;;;;;;;0.68;0.68;;;;;;;33.99;35.96;99726.06;4416593;32;34030;-86
2023/07/16 08:42:40;;;;;;;1.48;0.85;;;;;;;34.02;36.18;99723.72;4418881;32;33925;-87
2023/07/16 08:45:10;;;;;;;1.08;1.08;;;;;;;34.56;34.51;99718.69;4415041;32;33978;-87
2023/07/16 08:47:38;;;;;;;1.48;1.37;;;;;;;34.31;35.25;99719.50;4413948;32;33304;-86
2023/07/16 08:50:06;;;;;;;1.23;1.12;;;;;;;34.24;35.50;99718.72;4418175;32;33619;-87
2023/07/16 08:52:33;;;;;;;1.87;1.52;;;;;;;34.42;35.32;99717.94;4414402;32;34964;-87
2023/07/16 08:55:01;;;;;;;0.50;0.50;;;;;;;34.41;35.56;99727.22;4406427;32;32417;-87
2023/07/16 08:57:30;;;;;;;1.30;1.20;;;;;;;34.68;35.18;99727.84;4430089;32;33302;-87
2023/07/16 08:59:58;;;;;;;1.45;1.35;;;;;;;35.03;34.61;99728.13;4418461;32;33410;-86
2023/07/16 09:02:26;;;;;;;1.35;1.27;;;;;;;35.18;34.34;99727.75;4415235;32;33306;-87
2023/07/16 09:04:54;;;;;;;1.17;0.93;;;;;;;35.32;35.17;99726.56;4429633;32;33468;-86
2023/07/16 09:07:22;;;;;;;1.73;1.08;;;;;;;34.89;33.83;99726.56;4426853;32;33615;-87
2023/07/16 09:10:00;;;;;;;2.33;2.15;;;;;;;34.39;34.58;99726.63;4416042;32;33206;-86
2023/07/16 09:12:29;;;;;;;2.22;1.05;;;;;;;34.96;35.69;99727.41;4428497;32;33921;-87
2023/07/16 09:14:57;;;;;;;0.80;0.80;;;;;;;35.19;33.94;99721.22;4399177;32;32666;-86
2023/07/16 09:17:25;;;;;;;1.17;1.17;;;;;;;35.14;34.88;99721.06;4422965;32;34029;-87
2023/07/16 09:19:53;;;;;;;0.57;0.55;;;;;;;34.96;34.66;99734.78;4422029;32;34207;-87
2023/07/16 09:22:22;;;;;;;3.05;2.05;;;;;;;34.89;34.35;99721.94;4415502;32;33928;-86
2023/07/16 09:24:49;;;;;;;1.42;1.33;;;;;;;35.31;33.46;99724.03;4406147;32;32984;-86
2023/07/16 09:27:17;;;;;;;2.70;1.45;;;;;;;35.24;33.23;99723.28;4415351;32;33517;-87
2023/07/16 09:29:45;;;;;;;3.25;1.52;;;;;;;35.00;34.82;99725.88;4426518;32;35237;-87
2023/07/16 09:32:14;;;;;;;1.95;1.80;;;;;;;35.11;33.63;99716.88;4424439;32;34034;-86
2023/07/16 09:34:42;;;;;;;0.77;0.77;;;;;;;35.31;33.82;99724.84;4429628;32;34282;-87
2023/07/16 09:37:10;;;;;;;1.77;1.67;;;;;;;35.47;33.58;99717.94;4411457;32;34266;-87
2023/07/16 09:39:37;;;;;;;1.27;1.17;;;;;;;35.24;33.26;99726.03;4414532;32;34381;-87
2023/07/16 09:42:05;;;;;;;1.42;1.30;;;;;;;35.67;32.36;99720.41;4426994;32;34851;-87
2023/07/16 09:44:33;;;;;;;4.97;2.28;;;;;;;35.18;31.89;99722.25;4426823;32;32365;-86
2023/07/16 09:47:01;;;;;;;1.95;1.62;;;;;;;35.81;31.57;99719.16;4414050;32;34029;-87
2023/07/16 09:49:29;;;;;;;7.20;1.98;;;;;;;35.74;32.42;99723.06;4429186;32;34324;-87
2023/07/16 09:51:57;;;;;;;0.90;0.90;;;;;;;36.28;31.31;99713.81;4414941;32;33962;-87
2023/07/16 09:54:27;;;;;;;0.62;0.62;;;;;;;35.93;31.29;99713.69;4407226;32;33547;-86
2023/07/16 09:57:00;;;;;;;5.10;2.17;;;;;;;35.79;32.27;99709.47;4414931;32;33594;-87
2023/07/16 09:59:30;;;;;;;2.55;1.90;;;;;;;35.41;33.06;99724.31;4401937;32;35059;-87
2023/07/16 10:01:58;;;;;;;1.05;0.85;;;;;;;35.25;33.17;99724.94;4414519;32;32651;-86
2023/07/16 10:04:26;;;;;;;6.78;1.12;;;;;;;35.57;32.40;99715.47;4429905;32;33798;-86
2023/07/16 10:06:56;;;;;;;1.52;0.75;;;;;;;36.01;33.09;99707.88;4413356;32;33082;-87
2023/07/16 10:09:40;;;;;;;2.83;1.98;;;;;;;36.57;32.79;99698.31;4413828;32;33888;-87
2023/07/16 10:12:14;;;;;;;0.70;0.70;;;;;;;36.12;31.27;99698.81;4414936;32;32830;-87
2023/07/16 10:15:03;;;;;;;0.85;0.85;;;;;;;36.16;31.40;99694.53;4420882;32;33488;-87
2023/07/16 10:17:32;;;;;;;0.82;0.80;;;;;;;36.00;30.99;99694.41;4431482;32;34456;-87
2023/07/16 10:20:01;;;;;;;4.20;1.83;;;;;;;36.20;31.21;99692.16;4405094;32;33377;-87
2023/07/16 10:22:39;;;;;;;5.10;2.47;;;;;;;35.61;32.07;99693.91;4427308;32;34472;-87
2023/07/16 10:25:22;;;;;;;1.12;1.08;;;;;;;36.06;30.68;99698.94;4412559;32;34809;-87
2023/07/16 10:27:51;;;;;;;11.02;2.67;;;;;;;36.33;30.80;99689.19;4429773;32;33246;-87
2023/07/16 10:30:19;;;;;;;0.90;0.90;;;;;;;36.75;31.04;99690.97;4406552;32;32085;-87
2023/07/16 10:32:47;;;;;;;0.90;0.90;;;;;;;36.62;30.54;99690.19;4417480;32;34471;-87
2023/07/16 10:35:15;;;;;;;0.73;0.73;;;;;;;36.60;30.80;99689.56;4416640;32;33421;-87
2023/07/16 10:37:42;;;;;;;1.35;1.25;;;;;;;37.07;31.02;99694.19;4404077;32;33544;-87
2023/07/16 10:40:11;;;;;;;3.75;2.10;;;;;;;36.88;31.00;99690.72;4428756;32;33874;-87
2023/07/16 10:42:41;;;;;;;1.00;0.90;;;;;;;36.91;30.01;99696.63;4417908;32;34199;-87
2023/07/16 10:45:09;;;;;;;1.87;1.52;;;;;;;37.11;30.25;99689.88;4415166;32;33989;-87
2023/07/16 10:47:38;;;;;;;1.27;1.17;;;;;;;37.35;30.37;99685.97;4426288;32;33421;-87
2023/07/16 10:50:09;;;;;;;1.05;0.80;;;;;;;37.45;30.01;99693.63;4411195;32;32126;-87
2023/07/16 10:52:38;;;;;;;;;;;;;;;37.37;29.92;99691.25;4406173;32;33460;-87
2023/07/16 10:55:06;;;;;;;0.93;0.93;;;;;;;37.49;30.29;99696.75;4430455;32;34203;-87
2023/07/16 10:57:33;;;;;;;4.35;1.25;;;;;;;37.24;29.21;99695.13;4416582;32;32966;-87
2023/07/16 11:00:01;;;;;;;0.60;0.60;;;;;;;37.17;30.35;99683.41;4428717;32;33534;-87
2023/07/16 11:02:29;;;;;;;1.45;1.25;;;;;;;37.52;30.00;99688.00;4418756;32;33108;-87
2023/07/16 11:05:02;;;;;;;1.40;1.30;;;;;;;37.33;30.46;99688.16;4416591;32;32660;-88
2023/07/16 11:07:30;;;;;;;1.65;1.10;;;;;;;37.84;29.15;99678.16;4432993;32;34229;-87
2023/07/16 11:09:58;;;;;;;1.33;1.23;;;;;;;37.80;30.11;99676.94;4412312;32;34006;-87
2023/07/16 11:12:25;;;;;;;0.93;0.93;;;;;;;37.44;29.56;99678.19;4416055;32;33696;-87
2023/07/16 11:14:54;;;;;;;0.70;0.70;;;;;;;37.57;29.99;99679.81;4421768;32;32691;-88
2023/07/16 11:17:24;;;;;;;1.23;1.12;;;;;;;37.47;29.54;99676.88;4418265;32;34281;-87
2023/07/16 11:19:53;;;;;;;3.70;2.05;;;;;;;37.50;29.11;99673.63;4428098;32;33555;-87
2023/07/16 11:22:26;;;;;;;1.98;0.93;;;;;;;37.67;29.73;99669.81;4417223;32;34104;-87
2023/07/16 11:24:54;;;;;;;1.87;0.95;;;;;;;37.72;28.81;99680.09;4417339;32;33009;-87
2023/07/16 11:27:27;;;;;;;1.17;0.98;;;;;;;37.78;28.26;99668.09;4427626;32;33886;-87
2023/07/16 11:29:56;;;;;;;2.42;1.67;;;;;;;37.78;28.22;99667.25;4430534;32;33896;-87
2023/07/16 11:32:26;;;;;;;1.05;0.88;;;;;;;37.53;28.52;99670.38;4412760;32;33675;-87
2023/07/16 11:34:55;;;;;;;1.80;1.43;;;;;;;37.55;27.89;99673.72;4434420;32;34132;-88
2023/07/16 11:37:25;;;;;;;1.55;1.17;;;;;;;38.19;27.74;99663.31;4403119;32;32136;-87
2023/07/16 11:40:19;;;;;;;1.42;1.33;;;;;;;38.10;27.89;99670.31;4417505;32;34244;-85